sensor_id;sensor_type;location;lat;lon;timestamp;pressure;altitude;pressure_sealevel;temperature;humidity
41254;BME280;26987;59.928;30.306;2024-01-15T00:00:22;98582.31;;;-9.98;88.43
41254;BME280;26987;59.928;30.306;2024-01-15T00:02:50;98447.06;;;-10.78;88.70
41254;BME280;26987;59.928;30.306;2024-01-15T00:05:22;98418.38;;;-10.86;88.01
41254;BME280;26987;59.928;30.306;2024-01-15T00:08:05;98574.44;;;-9.87;88.11
41254;BME280;26987;59.928;30.306;2024-01-15T00:10:41;98564.56;;;-9.93;88.10
41254;BME280;26987;59.928;30.306;2024-01-15T00:13:09;98560.41;;;-10.06;88.47
41254;BME280;26987;59.928;30.306;2024-01-15T00:15:40;98570.78;;;-10.06;88.44
41254;BME280;26987;59.928;30.306;2024-01-15T00:18:12;98499.59;;;-10.44;88.69
41254;BME280;26987;59.928;30.306;2024-01-15T00:20:42;98525.91;;;-10.28;88.05
41254;BME280;26987;59.928;30.306;2024-01-15T00:23:13;98563.84;;;-10.05;88.39
41254;BME280;26987;59.928;30.306;2024-01-15T00:25:52;98567.38;;;-10.06;89.50
41254;BME280;26987;59.928;30.306;2024-01-15T00:28:21;98554.28;;;-10.05;89.54
41254;BME280;26987;59.928;30.306;2024-01-15T00:30:49;98545.09;;;-10.09;89.08
41254;BME280;26987;59.928;30.306;2024-01-15T00:33:17;98539.25;;;-10.11;89.88
41254;BME280;26987;59.928;30.306;2024-01-15T00:35:45;98525.69;;;-10.15;89.96
41254;BME280;26987;59.928;30.306;2024-01-15T00:38:13;98542.13;;;-10.04;89.72
41254;BME280;26987;59.928;30.306;2024-01-15T00:40:41;98520.47;;;-10.24;90.22
41254;BME280;26987;59.928;30.306;2024-01-15T00:43:10;98540.88;;;-10.10;90.61
41254;BME280;26987;59.928;30.306;2024-01-15T00:45:38;98533.34;;;-10.13;90.70
41254;BME280;26987;59.928;30.306;2024-01-15T00:48:07;98538.03;;;-10.07;90.14
41254;BME280;26987;59.928;30.306;2024-01-15T00:50:35;98531.84;;;-10.16;90.29
41254;BME280;26987;59.928;30.306;2024-01-15T00:53:03;98538.28;;;-10.10;89.83
41254;BME280;26987;59.928;30.306;2024-01-15T00:55:31;98541.06;;;-10.02;90.40
41254;BME280;26987;59.928;30.306;2024-01-15T00:58:02;98519.38;;;-10.01;89.92
41254;BME280;26987;59.928;30.306;2024-01-15T01:00:35;98510.22;;;-10.05;90.05
41254;BME280;26987;59.928;30.306;2024-01-15T01:03:03;98516.06;;;-10.03;90.02
41254;BME280;26987;59.928;30.306;2024-01-15T01:05:31;98511.59;;;-10.01;89.90
41254;BME280;26987;59.928;30.306;2024-01-15T01:07:59;98495.69;;;-10.07;90.35
41254;BME280;26987;59.928;30.306;2024-01-15T01:10:27;98509.41;;;-9.95;90.21
41254;BME280;26987;59.928;30.306;2024-01-15T01:12:55;98510.38;;;-9.96;90.86
41254;BME280;26987;59.928;30.306;2024-01-15T01:15:23;98511.75;;;-9.92;90.24
41254;BME280;26987;59.928;30.306;2024-01-15T01:17:52;98513.22;;;-10.00;90.86
41254;BME280;26987;59.928;30.306;2024-01-15T01:20:20;98512.97;;;-9.96;91.47
41254;BME280;26987;59.928;30.306;2024-01-15T01:22:48;98500.00;;;-9.96;90.60
41254;BME280;26987;59.928;30.306;2024-01-15T01:25:16;98501.63;;;-9.95;91.56
41254;BME280;26987;59.928;30.306;2024-01-15T01:27:44;98506.44;;;-9.91;91.06
41254;BME280;26987;59.928;30.306;2024-01-15T01:30:12;98496.63;;;-9.87;91.42
41254;BME280;26987;59.928;30.306;2024-01-15T01:32:40;98498.31;;;-9.76;91.22
41254;BME280;26987;59.928;30.306;2024-01-15T01:35:09;98475.75;;;-9.85;90.64
41254;BME280;26987;59.928;30.306;2024-01-15T01:37:37;98502.31;;;-9.62;90.59
41254;BME280;26987;59.928;30.306;2024-01-15T01:40:06;98486.00;;;-9.84;90.04
41254;BME280;26987;59.928;30.306;2024-01-15T01:42:34;98493.06;;;-9.86;90.36
41254;BME280;26987;59.928;30.306;2024-01-15T01:45:03;98476.66;;;-9.96;90.87
41254;BME280;26987;59.928;30.306;2024-01-15T01:47:32;98485.94;;;-9.94;91.55
41254;BME280;26987;59.928;30.306;2024-01-15T01:50:01;98486.25;;;-9.87;91.22
41254;BME280;26987;59.928;30.306;2024-01-15T01:52:31;98485.41;;;-9.88;91.82
41254;BME280;26987;59.928;30.306;2024-01-15T01:55:01;98488.47;;;-9.82;91.72
41254;BME280;26987;59.928;30.306;2024-01-15T01:57:30;98486.13;;;-9.85;91.95
41254;BME280;26987;59.928;30.306;2024-01-15T02:00:01;98366.41;;;-10.63;91.86
41254;BME280;26987;59.928;30.306;2024-01-15T02:02:38;98470.56;;;-9.85;91.90
41254;BME280;26987;59.928;30.306;2024-01-15T02:05:06;98464.41;;;-9.84;92.01
41254;BME280;26987;59.928;30.306;2024-01-15T02:07:36;98489.31;;;-9.62;92.14
41254;BME280;26987;59.928;30.306;2024-01-15T02:10:05;98489.19;;;-9.60;91.55
41254;BME280;26987;59.928;30.306;2024-01-15T02:12:33;98477.63;;;-9.56;91.28
41254;BME280;26987;59.928;30.306;2024-01-15T02:15:01;98477.63;;;-9.56;91.06
41254;BME280;26987;59.928;30.306;2024-01-15T02:17:29;98477.19;;;-9.52;90.42
41254;BME280;26987;59.928;30.306;2024-01-15T02:19:57;98476.00;;;-9.47;91.16
41254;BME280;26987;59.928;30.306;2024-01-15T02:22:25;98466.69;;;-9.50;90.98
41254;BME280;26987;59.928;30.306;2024-01-15T02:24:54;98480.63;;;-9.51;90.40
41254;BME280;26987;59.928;30.306;2024-01-15T02:27:22;98478.16;;;-9.63;90.88
41254;BME280;26987;59.928;30.306;2024-01-15T02:29:51;98469.78;;;-9.66;91.50
41254;BME280;26987;59.928;30.306;2024-01-15T02:32:19;98338.94;;;-10.44;91.54
41254;BME280;26987;59.928;30.306;2024-01-15T02:34:47;98471.03;;;-9.60;92.07
41254;BME280;26987;59.928;30.306;2024-01-15T02:37:15;98470.50;;;-9.54;91.41
41254;BME280;26987;59.928;30.306;2024-01-15T02:39:43;98471.59;;;-9.57;90.79
41254;BME280;26987;59.928;30.306;2024-01-15T02:42:12;98468.28;;;-9.69;91.34
41254;BME280;26987;59.928;30.306;2024-01-15T02:44:40;98457.88;;;-9.79;91.67
41254;BME280;26987;59.928;30.306;2024-01-15T02:47:08;98449.66;;;-9.84;91.49
41254;BME280;26987;59.928;30.306;2024-01-15T02:49:36;98444.50;;;-9.84;92.06
41254;BME280;26987;59.928;30.306;2024-01-15T02:52:04;98459.81;;;-9.71;91.69
41254;BME280;26987;59.928;30.306;2024-01-15T02:54:32;98460.63;;;-9.70;91.69
41254;BME280;26987;59.928;30.306;2024-01-15T02:57:00;98459.41;;;-9.66;91.64
41254;BME280;26987;59.928;30.306;2024-01-15T02:59:30;98443.25;;;-9.80;91.67
41254;BME280;26987;59.928;30.306;2024-01-15T03:01:57;98455.97;;;-9.77;91.83
41254;BME280;26987;59.928;30.306;2024-01-15T03:04:25;98456.53;;;-9.73;91.90
41254;BME280;26987;59.928;30.306;2024-01-15T03:06:54;98446.44;;;-9.76;91.76
41254;BME280;26987;59.928;30.306;2024-01-15T03:09:21;98433.53;;;-9.88;92.08
41254;BME280;26987;59.928;30.306;2024-01-15T03:11:50;98423.88;;;-9.85;91.96
41254;BME280;26987;59.928;30.306;2024-01-15T03:14:18;98428.94;;;-9.74;92.28
41254;BME280;26987;59.928;30.306;2024-01-15T03:16:48;98435.53;;;-9.60;92.33
41254;BME280;26987;59.928;30.306;2024-01-15T03:19:16;98397.53;;;-9.81;91.65
41254;BME280;26987;59.928;30.306;2024-01-15T03:21:43;98440.84;;;-9.52;91.57
41254;BME280;26987;59.928;30.306;2024-01-15T03:24:11;98445.78;;;-9.48;92.03
41254;BME280;26987;59.928;30.306;2024-01-15T03:26:39;98438.13;;;-9.50;91.52
41254;BME280;26987;59.928;30.306;2024-01-15T03:29:07;98446.34;;;-9.45;91.36
41254;BME280;26987;59.928;30.306;2024-01-15T03:31:35;98431.88;;;-9.47;90.99
41254;BME280;26987;59.928;30.306;2024-01-15T03:34:04;98436.22;;;-9.38;91.07
41254;BME280;26987;59.928;30.306;2024-01-15T03:36:32;98430.09;;;-9.37;90.73
41254;BME280;26987;59.928;30.306;2024-01-15T03:39:00;98425.44;;;-9.43;90.39
41254;BME280;26987;59.928;30.306;2024-01-15T03:41:28;98403.69;;;-9.62;90.70
41254;BME280;26987;59.928;30.306;2024-01-15T03:43:56;98424.47;;;-9.42;90.44
41254;BME280;26987;59.928;30.306;2024-01-15T03:46:25;98427.34;;;-9.45;90.80
41254;BME280;26987;59.928;30.306;2024-01-15T03:48:53;98367.91;;;-9.78;90.32
41254;BME280;26987;59.928;30.306;2024-01-15T03:51:22;98414.94;;;-9.42;90.59
41254;BME280;26987;59.928;30.306;2024-01-15T03:53:51;98406.97;;;-9.50;90.25
41254;BME280;26987;59.928;30.306;2024-01-15T03:56:19;98411.25;;;-9.49;90.57
41254;BME280;26987;59.928;30.306;2024-01-15T03:58:46;98399.50;;;-9.43;90.60
41254;BME280;26987;59.928;30.306;2024-01-15T04:01:14;98394.84;;;-9.40;90.36
41254;BME280;26987;59.928;30.306;2024-01-15T04:03:42;98385.28;;;-9.39;90.34
41254;BME280;26987;59.928;30.306;2024-01-15T04:06:10;98404.69;;;-9.23;89.97
41254;BME280;26987;59.928;30.306;2024-01-15T04:08:39;98404.00;;;-9.26;89.28
41254;BME280;26987;59.928;30.306;2024-01-15T04:11:07;98400.31;;;-9.33;89.76
41254;BME280;26987;59.928;30.306;2024-01-15T04:13:35;98398.41;;;-9.41;89.95
41254;BME280;26987;59.928;30.306;2024-01-15T04:16:04;98410.69;;;-9.33;90.18
41254;BME280;26987;59.928;30.306;2024-01-15T04:18:32;98406.34;;;-9.32;90.57
41254;BME280;26987;59.928;30.306;2024-01-15T04:20:59;98400.59;;;-9.26;90.42
41254;BME280;26987;59.928;30.306;2024-01-15T04:23:27;98295.63;;;-10.03;89.84
41254;BME280;26987;59.928;30.306;2024-01-15T04:25:57;98381.88;;;-9.30;90.20
41254;BME280;26987;59.928;30.306;2024-01-15T04:28:25;98401.28;;;-9.24;89.47
41254;BME280;26987;59.928;30.306;2024-01-15T04:30:52;98391.97;;;-9.27;90.07
41254;BME280;26987;59.928;30.306;2024-01-15T04:33:20;98393.22;;;-9.21;90.19
41254;BME280;26987;59.928;30.306;2024-01-15T04:35:49;98389.94;;;-9.13;90.06
41254;BME280;26987;59.928;30.306;2024-01-15T04:38:17;98384.88;;;-9.15;89.93
41254;BME280;26987;59.928;30.306;2024-01-15T04:40:45;98374.50;;;-9.15;89.57
41254;BME280;26987;59.928;30.306;2024-01-15T04:43:14;98382.25;;;-9.05;89.67
41254;BME280;26987;59.928;30.306;2024-01-15T04:45:42;98381.31;;;-9.04;89.19
41254;BME280;26987;59.928;30.306;2024-01-15T04:48:10;98376.13;;;-9.04;89.11
41254;BME280;26987;59.928;30.306;2024-01-15T04:50:38;98362.75;;;-9.19;89.50
41254;BME280;26987;59.928;30.306;2024-01-15T04:53:05;98372.03;;;-9.16;89.65
41254;BME280;26987;59.928;30.306;2024-01-15T04:55:33;98372.16;;;-9.18;89.90
41254;BME280;26987;59.928;30.306;2024-01-15T04:58:04;98371.47;;;-9.10;88.98
41254;BME280;26987;59.928;30.306;2024-01-15T05:00:33;98368.59;;;-9.17;89.67
41254;BME280;26987;59.928;30.306;2024-01-15T05:03:01;98366.13;;;-9.18;90.31
41254;BME280;26987;59.928;30.306;2024-01-15T05:05:29;98364.78;;;-9.13;89.23
41254;BME280;26987;59.928;30.306;2024-01-15T05:07:57;98335.28;;;-9.31;89.37
41254;BME280;26987;59.928;30.306;2024-01-15T05:10:25;98363.69;;;-9.10;89.20
41254;BME280;26987;59.928;30.306;2024-01-15T05:12:53;98368.06;;;-9.01;88.36
41254;BME280;26987;59.928;30.306;2024-01-15T05:15:21;98377.78;;;-9.13;88.95
41254;BME280;26987;59.928;30.306;2024-01-15T05:17:50;98370.00;;;-9.13;89.17
41254;BME280;26987;59.928;30.306;2024-01-15T05:20:18;98372.72;;;-9.14;88.98
41254;BME280;26987;59.928;30.306;2024-01-15T05:22:46;98366.69;;;-9.15;89.40
41254;BME280;26987;59.928;30.306;2024-01-15T05:25:14;98325.19;;;-9.44;90.16
41254;BME280;26987;59.928;30.306;2024-01-15T05:27:42;98369.44;;;-9.16;90.13
41254;BME280;26987;59.928;30.306;2024-01-15T05:30:10;98365.59;;;-9.12;89.95
41254;BME280;26987;59.928;30.306;2024-01-15T05:32:38;98356.03;;;-9.21;90.46
41254;BME280;26987;59.928;30.306;2024-01-15T05:35:08;98355.19;;;-9.12;90.31
41254;BME280;26987;59.928;30.306;2024-01-15T05:37:36;98362.03;;;-9.11;90.41
41254;BME280;26987;59.928;30.306;2024-01-15T05:40:04;98360.13;;;-9.09;90.30
41254;BME280;26987;59.928;30.306;2024-01-15T05:42:32;98356.03;;;-9.12;90.92
41254;BME280;26987;59.928;30.306;2024-01-15T05:45:00;98376.25;;;-9.05;90.21
41254;BME280;26987;59.928;30.306;2024-01-15T05:47:30;98358.22;;;-9.07;91.19
41254;BME280;26987;59.928;30.306;2024-01-15T05:50:00;98367.75;;;-8.97;90.93
41254;BME280;26987;59.928;30.306;2024-01-15T05:52:29;98359.56;;;-9.03;90.59
41254;BME280;26987;59.928;30.306;2024-01-15T05:54:57;98372.41;;;-8.91;91.13
41254;BME280;26987;59.928;30.306;2024-01-15T05:57:25;98371.97;;;-8.87;90.15
41254;BME280;26987;59.928;30.306;2024-01-15T05:59:53;98378.16;;;-8.88;90.25
41254;BME280;26987;59.928;30.306;2024-01-15T06:02:21;98362.56;;;-8.97;89.29
41254;BME280;26987;59.928;30.306;2024-01-15T06:04:49;98348.25;;;-9.12;89.71
41254;BME280;26987;59.928;30.306;2024-01-15T06:07:17;98363.41;;;-9.07;89.40
41254;BME280;26987;59.928;30.306;2024-01-15T06:09:46;98375.72;;;-8.99;89.67
41254;BME280;26987;59.928;30.306;2024-01-15T06:12:14;98372.94;;;-8.97;90.14
41254;BME280;26987;59.928;30.306;2024-01-15T06:14:42;98364.34;;;-9.08;89.48
41254;BME280;26987;59.928;30.306;2024-01-15T06:17:10;98317.50;;;-9.36;89.51
41254;BME280;26987;59.928;30.306;2024-01-15T06:19:37;98372.56;;;-9.03;90.25
41254;BME280;26987;59.928;30.306;2024-01-15T06:22:05;98368.06;;;-9.01;89.96
41254;BME280;26987;59.928;30.306;2024-01-15T06:24:37;98365.84;;;-8.95;89.73
41254;BME280;26987;59.928;30.306;2024-01-15T06:27:06;98359.72;;;-9.04;89.37
41254;BME280;26987;59.928;30.306;2024-01-15T06:29:37;98348.38;;;-9.13;90.03
41254;BME280;26987;59.928;30.306;2024-01-15T06:32:05;98376.25;;;-8.95;89.50
41254;BME280;26987;59.928;30.306;2024-01-15T06:34:33;98379.94;;;-8.98;89.86
41254;BME280;26987;59.928;30.306;2024-01-15T06:37:01;98372.94;;;-8.97;90.11
41254;BME280;26987;59.928;30.306;2024-01-15T06:39:29;98372.81;;;-8.96;89.68
41254;BME280;26987;59.928;30.306;2024-01-15T06:41:57;98382.81;;;-9.01;89.76
41254;BME280;26987;59.928;30.306;2024-01-15T06:44:26;98367.91;;;-9.09;90.01
41254;BME280;26987;59.928;30.306;2024-01-15T06:46:54;98346.63;;;-9.13;90.12
41254;BME280;26987;59.928;30.306;2024-01-15T06:49:23;98367.75;;;-8.97;90.28
41254;BME280;26987;59.928;30.306;2024-01-15T06:51:51;98359.03;;;-8.96;89.80
41254;BME280;26987;59.928;30.306;2024-01-15T06:54:19;98372.81;;;-8.86;89.58
41254;BME280;26987;59.928;30.306;2024-01-15T06:56:47;98370.50;;;-8.89;90.31
41254;BME280;26987;59.928;30.306;2024-01-15T06:59:15;98238.84;;;-9.66;90.23
41254;BME280;26987;59.928;30.306;2024-01-15T07:01:44;98377.84;;;-8.75;90.35
41254;BME280;26987;59.928;30.306;2024-01-15T07:04:12;98374.00;;;-8.70;90.04
41254;BME280;26987;59.928;30.306;2024-01-15T07:06:40;98373.72;;;-8.67;89.61
41254;BME280;26987;59.928;30.306;2024-01-15T07:09:08;98350.78;;;-8.82;90.10
41254;BME280;26987;59.928;30.306;2024-01-15T07:11:46;98211.44;;;-9.69;90.02
41254;BME280;26987;59.928;30.306;2024-01-15T07:14:15;98364.03;;;-8.75;90.20
41254;BME280;26987;59.928;30.306;2024-01-15T07:16:44;98353.22;;;-8.70;90.44
41254;BME280;26987;59.928;30.306;2024-01-15T07:19:12;98355.97;;;-8.72;90.68
41254;BME280;26987;59.928;30.306;2024-01-15T07:21:40;98353.22;;;-8.70;90.47
41254;BME280;26987;59.928;30.306;2024-01-15T07:24:09;98356.63;;;-8.70;91.01
41254;BME280;26987;59.928;30.306;2024-01-15T07:26:37;98365.63;;;-8.64;92.18
41254;BME280;26987;59.928;30.306;2024-01-15T07:29:27;98364.63;;;-8.53;90.55
41254;BME280;26987;59.928;30.306;2024-01-15T07:31:57;98252.34;;;-9.33;90.43
41254;BME280;26987;59.928;30.306;2024-01-15T07:34:31;98371.41;;;-8.70;90.06
41254;BME280;26987;59.928;30.306;2024-01-15T07:36:59;98349.44;;;-8.86;90.94
41254;BME280;26987;59.928;30.306;2024-01-15T07:39:27;98358.16;;;-8.77;91.31
41254;BME280;26987;59.928;30.306;2024-01-15T07:41:57;98338.63;;;-8.91;91.07
41254;BME280;26987;59.928;30.306;2024-01-15T07:44:25;98358.28;;;-8.79;91.42
41254;BME280;26987;59.928;30.306;2024-01-15T07:46:57;98359.22;;;-8.70;90.72
41254;BME280;26987;59.928;30.306;2024-01-15T07:49:28;98367.44;;;-8.75;90.46
41254;BME280;26987;59.928;30.306;2024-01-15T07:51:59;98263.16;;;-9.47;89.91
41254;BME280;26987;59.928;30.306;2024-01-15T07:54:27;98341.34;;;-8.93;90.11
41254;BME280;26987;59.928;30.306;2024-01-15T07:56:56;98344.53;;;-8.99;90.16
41254;BME280;26987;59.928;30.306;2024-01-15T07:59:25;98346.88;;;-9.06;90.40
41254;BME280;26987;59.928;30.306;2024-01-15T08:01:53;98351.22;;;-9.06;90.92
41254;BME280;26987;59.928;30.306;2024-01-15T08:04:22;98358.88;;;-9.05;90.90
41254;BME280;26987;59.928;30.306;2024-01-15T08:06:50;98325.44;;;-9.38;90.75
41254;BME280;26987;59.928;30.306;2024-01-15T08:09:19;98333.66;;;-9.32;91.96
41254;BME280;26987;59.928;30.306;2024-01-15T08:11:47;98316.44;;;-9.43;92.45
41254;BME280;26987;59.928;30.306;2024-01-15T08:14:15;98350.28;;;-9.15;92.38
41254;BME280;26987;59.928;30.306;2024-01-15T08:16:43;98353.56;;;-9.13;91.70
41254;BME280;26987;59.928;30.306;2024-01-15T08:19:11;98329.66;;;-9.27;92.58
41254;BME280;26987;59.928;30.306;2024-01-15T08:21:42;98317.53;;;-9.26;91.89
41254;BME280;26987;59.928;30.306;2024-01-15T08:24:10;98353.31;;;-9.10;91.92
41254;BME280;26987;59.928;30.306;2024-01-15T08:26:37;98351.63;;;-9.11;91.69
41254;BME280;26987;59.928;30.306;2024-01-15T08:29:05;98353.03;;;-9.07;91.50
41254;BME280;26987;59.928;30.306;2024-01-15T08:31:33;98188.13;;;-10.18;91.67
41254;BME280;26987;59.928;30.306;2024-01-15T08:34:01;98218.41;;;-9.79;92.46
41254;BME280;26987;59.928;30.306;2024-01-15T08:36:29;98341.78;;;-8.88;91.51
41254;BME280;26987;59.928;30.306;2024-01-15T08:38:59;98301.63;;;-9.13;91.00
41254;BME280;26987;59.928;30.306;2024-01-15T08:41:26;98330.03;;;-8.92;90.79
41254;BME280;26987;59.928;30.306;2024-01-15T08:43:54;98344.19;;;-8.76;91.20
41254;BME280;26987;59.928;30.306;2024-01-15T08:46:23;98350.91;;;-8.74;90.61
41254;BME280;26987;59.928;30.306;2024-01-15T08:48:54;98335.47;;;-8.85;91.09
41254;BME280;26987;59.928;30.306;2024-01-15T08:51:24;98328.50;;;-8.84;90.56
41254;BME280;26987;59.928;30.306;2024-01-15T08:53:55;98304.06;;;-9.02;90.48
41254;BME280;26987;59.928;30.306;2024-01-15T08:56:25;98332.72;;;-8.83;90.43
41254;BME280;26987;59.928;30.306;2024-01-15T08:58:53;98343.38;;;-8.77;90.36
41254;BME280;26987;59.928;30.306;2024-01-15T09:01:21;98307.59;;;-8.93;91.03
41254;BME280;26987;59.928;30.306;2024-01-15T09:03:50;98305.25;;;-8.86;90.98
41254;BME280;26987;59.928;30.306;2024-01-15T09:06:18;98330.50;;;-8.68;90.13
41254;BME280;26987;59.928;30.306;2024-01-15T09:08:47;98324.94;;;-8.83;90.04
41254;BME280;26987;59.928;30.306;2024-01-15T09:11:15;98327.00;;;-8.87;90.37
41254;BME280;26987;59.928;30.306;2024-01-15T09:13:44;98335.75;;;-8.78;90.42
41254;BME280;26987;59.928;30.306;2024-01-15T09:16:12;98232.41;;;-9.42;90.29
41254;BME280;26987;59.928;30.306;2024-01-15T09:18:40;98265.00;;;-9.20;91.64
41254;BME280;26987;59.928;30.306;2024-01-15T09:21:08;98158.88;;;-9.81;90.83
41254;BME280;26987;59.928;30.306;2024-01-15T09:23:37;98320.78;;;-8.66;90.65
41254;BME280;26987;59.928;30.306;2024-01-15T09:26:09;98296.50;;;-8.85;90.63
41254;BME280;26987;59.928;30.306;2024-01-15T09:28:37;98313.00;;;-8.76;90.55
41254;BME280;26987;59.928;30.306;2024-01-15T09:31:06;98308.09;;;-8.79;90.92
41254;BME280;26987;59.928;30.306;2024-01-15T09:33:34;98332.03;;;-8.76;90.62
41254;BME280;26987;59.928;30.306;2024-01-15T09:36:03;98324.66;;;-8.80;91.33
41254;BME280;26987;59.928;30.306;2024-01-15T09:38:31;98314.53;;;-8.83;91.31
41254;BME280;26987;59.928;30.306;2024-01-15T09:40:59;98328.31;;;-8.63;90.64
41254;BME280;26987;59.928;30.306;2024-01-15T09:43:27;98331.84;;;-8.64;90.44
41254;BME280;26987;59.928;30.306;2024-01-15T09:45:55;98336.25;;;-8.65;90.88
41254;BME280;26987;59.928;30.306;2024-01-15T09:48:25;98331.69;;;-8.63;90.97
41254;BME280;26987;59.928;30.306;2024-01-15T09:50:53;98334.78;;;-8.49;91.84
41254;BME280;26987;59.928;30.306;2024-01-15T09:53:21;98324.56;;;-8.32;91.06
41254;BME280;26987;59.928;30.306;2024-01-15T09:55:53;98328.00;;;-8.32;90.63
41254;BME280;26987;59.928;30.306;2024-01-15T09:58:21;98327.72;;;-8.29;90.88
41254;BME280;26987;59.928;30.306;2024-01-15T10:00:49;98321.84;;;-8.31;90.06
41254;BME280;26987;59.928;30.306;2024-01-15T10:03:17;98316.00;;;-8.43;89.83
41254;BME280;26987;59.928;30.306;2024-01-15T10:05:46;98313.53;;;-8.44;90.45
41254;BME280;26987;59.928;30.306;2024-01-15T10:08:15;98309.22;;;-8.54;90.85
41254;BME280;26987;59.928;30.306;2024-01-15T10:10:43;98314.88;;;-8.58;91.21
41254;BME280;26987;59.928;30.306;2024-01-15T10:13:12;98321.25;;;-8.53;92.12
41254;BME280;26987;59.928;30.306;2024-01-15T10:15:40;98312.06;;;-8.47;91.15
41254;BME280;26987;59.928;30.306;2024-01-15T10:18:10;98323.16;;;-8.45;91.37
41254;BME280;26987;59.928;30.306;2024-01-15T10:20:37;98317.13;;;-8.45;91.33
41254;BME280;26987;59.928;30.306;2024-01-15T10:23:07;98312.59;;;-8.43;90.92
41254;BME280;26987;59.928;30.306;2024-01-15T10:25:35;98292.66;;;-8.53;91.17
41254;BME280;26987;59.928;30.306;2024-01-15T10:28:04;98182.75;;;-9.19;91.00
41254;BME280;26987;59.928;30.306;2024-01-15T10:30:32;98317.16;;;-8.27;91.38
41254;BME280;26987;59.928;30.306;2024-01-15T10:33:02;98307.88;;;-8.30;90.98
41254;BME280;26987;59.928;30.306;2024-01-15T10:36:03;98297.00;;;-8.43;90.45
41254;BME280;26987;59.928;30.306;2024-01-15T10:38:38;98314.75;;;-8.39;90.09
41254;BME280;26987;59.928;30.306;2024-01-15T10:41:20;98301.81;;;-8.49;91.24
41254;BME280;26987;59.928;30.306;2024-01-15T10:43:49;98231.59;;;-8.95;91.10
41254;BME280;26987;59.928;30.306;2024-01-15T10:46:20;98288.81;;;-8.49;90.96
41254;BME280;26987;59.928;30.306;2024-01-15T10:48:54;98193.09;;;-9.09;91.01
41254;BME280;26987;59.928;30.306;2024-01-15T10:51:26;98232.81;;;-8.89;90.05
41254;BME280;26987;59.928;30.306;2024-01-15T10:53:56;98300.22;;;-8.31;91.97
41254;BME280;26987;59.928;30.306;2024-01-15T10:56:25;98290.84;;;-8.42;92.19
41254;BME280;26987;59.928;30.306;2024-01-15T10:58:58;98301.16;;;-8.32;92.26
41254;BME280;26987;59.928;30.306;2024-01-15T11:01:27;98298.72;;;-8.34;92.88
41254;BME280;26987;59.928;30.306;2024-01-15T11:04:19;98298.47;;;-8.13;92.40
41254;BME280;26987;59.928;30.306;2024-01-15T11:06:56;98228.72;;;-8.64;92.12
41254;BME280;26987;59.928;30.306;2024-01-15T11:09:33;98126.44;;;-9.19;92.41
41254;BME280;26987;59.928;30.306;2024-01-15T11:12:07;98295.22;;;-7.97;91.13
41254;BME280;26987;59.928;30.306;2024-01-15T11:14:38;98286.06;;;-8.01;90.73
41254;BME280;26987;59.928;30.306;2024-01-15T11:17:07;98296.72;;;-7.94;90.59
41254;BME280;26987;59.928;30.306;2024-01-15T11:19:37;98297.22;;;-7.90;90.85
41254;BME280;26987;59.928;30.306;2024-01-15T11:22:08;98297.22;;;-7.90;91.10
41254;BME280;26987;59.928;30.306;2024-01-15T11:24:43;98262.31;;;-8.34;89.80
41254;BME280;26987;59.928;30.306;2024-01-15T11:27:15;98287.94;;;-8.39;90.51
41254;BME280;26987;59.928;30.306;2024-01-15T11:30:04;98290.72;;;-8.51;91.43
41254;BME280;26987;59.928;30.306;2024-01-15T11:32:33;98293.94;;;-8.57;91.31
41254;BME280;26987;59.928;30.306;2024-01-15T11:35:02;98288.97;;;-8.78;92.46
41254;BME280;26987;59.928;30.306;2024-01-15T11:37:58;98284.19;;;-8.83;92.41
41254;BME280;26987;59.928;30.306;2024-01-15T11:40:38;98286.72;;;-9.01;92.52
41254;BME280;26987;59.928;30.306;2024-01-15T11:43:08;98271.94;;;-9.01;94.20
41254;BME280;26987;59.928;30.306;2024-01-15T11:45:37;98285.31;;;-8.85;93.46
41254;BME280;26987;59.928;30.306;2024-01-15T11:48:12;98247.19;;;-9.05;93.37
41254;BME280;26987;59.928;30.306;2024-01-15T11:50:41;98281.75;;;-8.94;93.38
41254;BME280;26987;59.928;30.306;2024-01-15T11:53:16;98256.53;;;-9.12;93.64
41254;BME280;26987;59.928;30.306;2024-01-15T11:55:47;98279.00;;;-8.83;94.84
41254;BME280;26987;59.928;30.306;2024-01-15T11:58:18;98276.63;;;-8.66;94.75
41254;BME280;26987;59.928;30.306;2024-01-15T12:00:48;98270.91;;;-8.52;94.25
41254;BME280;26987;59.928;30.306;2024-01-15T12:03:16;98263.25;;;-8.53;93.07
41254;BME280;26987;59.928;30.306;2024-01-15T12:05:44;98276.88;;;-8.41;93.39
41254;BME280;26987;59.928;30.306;2024-01-15T12:08:12;98269.06;;;-8.41;93.33
41254;BME280;26987;59.928;30.306;2024-01-15T12:10:41;98261.97;;;-8.49;92.45
41254;BME280;26987;59.928;30.306;2024-01-15T12:13:12;98262.25;;;-8.52;92.00
41254;BME280;26987;59.928;30.306;2024-01-15T12:15:41;98235.94;;;-8.85;92.74
41254;BME280;26987;59.928;30.306;2024-01-15T12:18:10;98268.91;;;-8.58;93.08
41254;BME280;26987;59.928;30.306;2024-01-15T12:20:39;98263.91;;;-8.69;92.59
41254;BME280;26987;59.928;30.306;2024-01-15T12:23:07;98264.75;;;-8.79;93.09
41254;BME280;26987;59.928;30.306;2024-01-15T12:25:36;98247.56;;;-8.90;93.04
41254;BME280;26987;59.928;30.306;2024-01-15T12:28:05;98264.25;;;-8.92;94.00
41254;BME280;26987;59.928;30.306;2024-01-15T12:30:35;98264.81;;;-8.89;94.16
41254;BME280;26987;59.928;30.306;2024-01-15T12:33:05;98245.97;;;-9.01;94.41
41254;BME280;26987;59.928;30.306;2024-01-15T12:35:33;98252.91;;;-8.91;94.41
41254;BME280;26987;59.928;30.306;2024-01-15T12:38:02;98218.03;;;-9.27;94.69
41254;BME280;26987;59.928;30.306;2024-01-15T12:40:31;98233.84;;;-9.20;95.93
41254;BME280;26987;59.928;30.306;2024-01-15T12:42:59;98237.63;;;-9.04;96.37
41254;BME280;26987;59.928;30.306;2024-01-15T12:45:30;98244.44;;;-8.93;96.56
41254;BME280;26987;59.928;30.306;2024-01-15T12:48:00;98240.72;;;-8.91;96.47
41254;BME280;26987;59.928;30.306;2024-01-15T12:50:29;98241.72;;;-8.92;95.35
41254;BME280;26987;59.928;30.306;2024-01-15T12:52:57;98239.81;;;-9.00;95.84
41254;BME280;26987;59.928;30.306;2024-01-15T12:55:26;98242.00;;;-9.05;95.96
41254;BME280;26987;59.928;30.306;2024-01-15T12:57:54;98239.56;;;-9.06;96.06
41254;BME280;26987;59.928;30.306;2024-01-15T13:00:22;98230.84;;;-9.15;96.57